Airfield :
LOGIN :

Register | Disclaimer

   EN    FR    IT 

 










Legend :    VFR   Marginal VFR   IFR   Intensive IFR   Very Intensive IFR
Visi :
Ceiling :
>= 8 km
>= 3000ft
5 to 8 km
1000 to 3000 ft
1500m to 5 km
500 to 1000 ft
800 to 1500m
200 to 500 ft
< 800m
< 200 ft
Symbols :   Thunderstorms  Fog  Heavy snow  Heavy precipitations  Wind > 20 kt
SIGMETs :     Misc.  Thunderstorms  Icing  Turbulence  Mountain Waves  Volcanic Ashes







- Airport Elevation : 616 ft
- IATA code : PUF
- Download approach charts


LFBP - Pau

CURRENT METAR :
  • 222330Z AUTO 28005KT 4300 BR BKN003 OVC007 19/18 Q1022 NOSIG

EXPIRED METARs :
  • 222300Z AUTO 28004KT 5000 BR OVC005 19/18 Q1022 TEMPO RADZ
  • 222230Z AUTO 29005KT 5000 BR BKN007 OVC019 19/18 Q1022 TEMPO RADZ BKN004
  • 222200Z AUTO 29008KT 270V330 8000 BKN005 OVC011 19/18 Q1021 TEMPO 3000 RADZ BR
  • 222130Z AUTO 29008KT 4600 BR BKN005 OVC009 19/18 Q1021 TEMPO RADZ
  • 222100Z AUTO 30006KT 5000 BR OVC004 19/18 Q1021 TEMPO RADZ BKN005

TAF TAF LFBP
Valid from the 23 at 00:00 until the 24 at 00:00 UTC


222300Z 2300/2324 27008KT 9999 BKN013
TEMPO 2300/2308 4000 BR OVC004
BECMG 2310/2312 33005KT BKN030
TEMPO 2315/2321 30010G20KT
BECMG 2321/2323 BKN013
No reported NOTAMs for that airfield.



MET'MAP, your aeronautical weather chart ! - Copyright ORBIFLY December 2007 - Disclaimer

ORBIFLY MET'MAP TEAM :

Programming & Development : Alexandra Zaïnal
Concept & Development : Baudouin d'Aumeries
Co-Development & Prog : Marc-Olivier Méhu
Technical & hardware support : Manuel Goepfert

Contact : metmap@orbifly.com




SOURCES & CREDITS :

   NOAA